^^
Saratoga-Weather Station Historical Data
Daily Summary for November 23, 2021 Units:  Both    English   Metric
Daily Weekly Monthly Yearly Custom
  High: Low: Average:
Temperature: 44.4 °F /  6.9 °C 31.3 °F /  -0.4 °C 40.5 °F /  4.7 °C
Dew Point: 39 °F /  3.9 °C 28.9 °F /  -1.7 °C 34.9 °F /  1.6 °C
Humidity: 91% 67% 81%
Wind Speed: 6.9mph /  11.1km/h - 1mph /  1.6km/h
Wind Gust: 12mph /  19.3km/h - -
Wind- - ESE
Pressure: 30.4 in /  1029.5 hPa 30.3 in /  1026.8 hPa -
Precipitation: 0 in /  0.0 mm    
Historical Graphs
 
 
Tabular Data for November 23, 2021
Time Temperature Dew Point Pressure Wind Wind Speed Wind Gust Humidity Rainfall Rate (Hourly) solar
08:15 31.3 °F /  -0.4 °C 28.9 °F /  -1.7 °C 30.4in /  1029.1hPa Calm     91% 0in /  0.0mm 9 W/m2
08:20 31.3 °F /  -0.4 °C 28.9 °F /  -1.7 °C 30.4in /  1029.1hPa Calm   1mph /  1.6km/h 91% 0in /  0.0mm 9 W/m2
08:25 31.3 °F /  -0.4 °C 28.9 °F /  -1.7 °C 30.4in /  1029.1hPa WNW 2mph /  3.2km/h 2mph /  3.2km/h 91% 0in /  0.0mm 11 W/m2
08:30 31.5 °F /  -0.3 °C 29.1 °F /  -1.6 °C 30.4in /  1029.1hPa Calm   2mph /  3.2km/h 91% 0in /  0.0mm 11 W/m2
08:35 31.6 °F /  -0.2 °C 29.3 °F /  -1.5 °C 30.4in /  1029.5hPa East 0.9mph /  1.4km/h 1mph /  1.6km/h 91% 0in /  0.0mm 12 W/m2
08:40 31.8 °F /  -0.1 °C 29.3 °F /  -1.5 °C 30.4in /  1029.5hPa Calm   4mph /  6.4km/h 90% 0in /  0.0mm 12 W/m2
08:45 32.2 °F /  0.1 °C 29.7 °F /  -1.3 °C 30.4in /  1029.5hPa NW 0.9mph /  1.4km/h 3mph /  4.8km/h 90% 0in /  0.0mm 14 W/m2
08:50 32.4 °F /  0.2 °C 29.5 °F /  -1.4 °C 30.4in /  1029.1hPa Calm   4mph /  6.4km/h 89% 0in /  0.0mm 14 W/m2
08:55 32.4 °F /  0.2 °C 29.5 °F /  -1.4 °C 30.4in /  1029.1hPa West 2mph /  3.2km/h 2mph /  3.2km/h 89% 0in /  0.0mm 16 W/m2
09:00 32.4 °F /  0.2 °C 29.5 °F /  -1.4 °C 30.4in /  1029.5hPa Calm   2mph /  3.2km/h 89% 0in /  0.0mm 16 W/m2
09:05 32.5 °F /  0.3 °C 29.3 °F /  -1.5 °C 30.4in /  1029.5hPa NW 0.9mph /  1.4km/h 3mph /  4.8km/h 88% 0in /  0.0mm 16 W/m2
09:10 32.7 °F /  0.4 °C 29.5 °F /  -1.4 °C 30.4in /  1029.5hPa Calm     88% 0in /  0.0mm 18 W/m2
09:15 32.9 °F /  0.5 °C 29.7 °F /  -1.3 °C 30.4in /  1029.5hPa Calm   1mph /  1.6km/h 88% 0in /  0.0mm 18 W/m2
09:20 32.9 °F /  0.5 °C 29.7 °F /  -1.3 °C 30.4in /  1029.5hPa Calm     88% 0in /  0.0mm 18 W/m2
09:25 33.1 °F /  0.6 °C 29.8 °F /  -1.2 °C 30.4in /  1029.5hPa Calm     88% 0in /  0.0mm 19 W/m2
09:30 33.1 °F /  0.6 °C 29.8 °F /  -1.2 °C 30.4in /  1029.5hPa Calm   1mph /  1.6km/h 88% 0in /  0.0mm 19 W/m2
09:35 33.1 °F /  0.6 °C 29.8 °F /  -1.2 °C 30.4in /  1029.5hPa Calm   1mph /  1.6km/h 88% 0in /  0.0mm 21 W/m2
09:40 33.1 °F /  0.6 °C 29.8 °F /  -1.2 °C 30.4in /  1029.1hPa Calm   3mph /  4.8km/h 88% 0in /  0.0mm 23 W/m2
09:45 33.3 °F /  0.7 °C 30 °F /  -1.1 °C 30.4in /  1029.1hPa ENE 2mph /  3.2km/h 4mph /  6.4km/h 88% 0in /  0.0mm 21 W/m2
09:50 33.6 °F /  0.9 °C 30.4 °F /  -0.9 °C 30.4in /  1029.1hPa East 0.9mph /  1.4km/h 4mph /  6.4km/h 88% 0in /  0.0mm 21 W/m2
09:55 34 °F /  1.1 °C 30.6 °F /  -0.8 °C 30.4in /  1029.5hPa East 0.9mph /  1.4km/h 3mph /  4.8km/h 87% 0in /  0.0mm 26 W/m2
10:00 34.2 °F /  1.2 °C 30.7 °F /  -0.7 °C 30.4in /  1029.5hPa Calm   4mph /  6.4km/h 87% 0in /  0.0mm 23 W/m2
10:05 34.3 °F /  1.3 °C 30.6 °F /  -0.8 °C 30.4in /  1029.5hPa ENE 2mph /  3.2km/h 3mph /  4.8km/h 86% 0in /  0.0mm 23 W/m2
10:10 34.5 °F /  1.4 °C 30.6 °F /  -0.8 °C 30.4in /  1029.5hPa Calm   1mph /  1.6km/h 85% 0in /  0.0mm 26 W/m2
10:15 34.5 °F /  1.4 °C 30.6 °F /  -0.8 °C 30.4in /  1029.5hPa Calm     85% 0in /  0.0mm 32 W/m2
10:20 34.5 °F /  1.4 °C 30.6 °F /  -0.8 °C 30.4in /  1029.5hPa ENE 0.9mph /  1.4km/h 2mph /  3.2km/h 85% 0in /  0.0mm 28 W/m2
10:25 34.7 °F /  1.5 °C 30.7 °F /  -0.7 °C 30.4in /  1029.5hPa Calm   1mph /  1.6km/h 85% 0in /  0.0mm 32 W/m2
10:30 34.9 °F /  1.6 °C 30.9 °F /  -0.6 °C 30.4in /  1029.5hPa Calm   3mph /  4.8km/h 85% 0in /  0.0mm 26 W/m2
10:35 35.2 °F /  1.8 °C 30.9 °F /  -0.6 °C 30.4in /  1029.5hPa East 0.9mph /  1.4km/h 1mph /  1.6km/h 84% 0in /  0.0mm 26 W/m2
10:40 35.6 °F /  2 °C 31.3 °F /  -0.4 °C 30.4in /  1029.5hPa Calm   2mph /  3.2km/h 84% 0in /  0.0mm 25 W/m2
10:46 36 °F /  2.2 °C 31.3 °F /  -0.4 °C 30.4in /  1029.5hPa Calm   2mph /  3.2km/h 83% 0in /  0.0mm 25 W/m2
10:51 36.1 °F /  2.3 °C 31.1 °F /  -0.5 °C 30.4in /  1029.5hPa NNW 0.9mph /  1.4km/h 3mph /  4.8km/h 82% 0in /  0.0mm 30 W/m2
10:56 36.3 °F /  2.4 °C 31.3 °F /  -0.4 °C 30.4in /  1029.5hPa Calm   3mph /  4.8km/h 82% 0in /  0.0mm 28 W/m2
11:01 36.7 °F /  2.6 °C 31.5 °F /  -0.3 °C 30.4in /  1029.5hPa Calm   3mph /  4.8km/h 81% 0in /  0.0mm 25 W/m2
11:06 36.9 °F /  2.7 °C 31.6 °F /  -0.2 °C 30.4in /  1029.5hPa Calm   2mph /  3.2km/h 81% 0in /  0.0mm 28 W/m2
11:11 37 °F /  2.8 °C 31.5 °F /  -0.3 °C 30.4in /  1029.5hPa Calm   3mph /  4.8km/h 80% 0in /  0.0mm 32 W/m2
11:16 37.4 °F /  3 °C 31.5 °F /  -0.3 °C 30.4in /  1029.5hPa Calm   3mph /  4.8km/h 79% 0in /  0.0mm 33 W/m2
11:21 37.8 °F /  3.2 °C 31.5 °F /  -0.3 °C 30.4in /  1029.5hPa Calm   4mph /  6.4km/h 78% 0in /  0.0mm 39 W/m2
11:26 38.1 °F /  3.4 °C 31.6 °F /  -0.2 °C 30.4in /  1029.5hPa East 4mph /  6.4km/h 4mph /  6.4km/h 77% 0in /  0.0mm 25 W/m2
11:31 38.5 °F /  3.6 °C 31.6 °F /  -0.2 °C 30.4in /  1029.5hPa North 2.9mph /  4.7km/h 6mph /  9.7km/h 76% 0in /  0.0mm 39 W/m2
11:36 38.8 °F /  3.8 °C 31.6 °F /  -0.2 °C 30.4in /  1029.5hPa Calm   4mph /  6.4km/h 75% 0in /  0.0mm 30 W/m2
11:41 39.4 °F /  4.1 °C 31.5 °F /  -0.3 °C 30.4in /  1029.5hPa East 4mph /  6.4km/h 5mph /  8km/h 73% 0in /  0.0mm 30 W/m2
11:46 39.7 °F /  4.3 °C 31.5 °F /  -0.3 °C 30.4in /  1029.5hPa East 4mph /  6.4km/h 5mph /  8km/h 72% 0in /  0.0mm 25 W/m2
11:51 40.1 °F /  4.5 °C 31.5 °F /  -0.3 °C 30.4in /  1029.1hPa ENE 2mph /  3.2km/h 6mph /  9.7km/h 71% 0in /  0.0mm 26 W/m2
11:56 40.3 °F /  4.6 °C 31.6 °F /  -0.2 °C 30.4in /  1029.1hPa ESE 2.9mph /  4.7km/h 5mph /  8km/h 71% 0in /  0.0mm 32 W/m2
12:01 40.5 °F /  4.7 °C 31.8 °F /  -0.1 °C 30.4in /  1029.1hPa ESE 0.9mph /  1.4km/h 3mph /  4.8km/h 71% 0in /  0.0mm 47 W/m2
12:06 40.6 °F /  4.8 °C 32.4 °F /  0.2 °C 30.4in /  1029.1hPa North 4mph /  6.4km/h 6mph /  9.7km/h 72% 0in /  0.0mm 30 W/m2
12:11 40.8 °F /  4.9 °C 32.5 °F /  0.3 °C 30.4in /  1029.1hPa North 2mph /  3.2km/h 6mph /  9.7km/h 72% 0in /  0.0mm 25 W/m2
12:16 41 °F /  5 °C 32.4 °F /  0.2 °C 30.4in /  1028.8hPa NNE 0.9mph /  1.4km/h 4mph /  6.4km/h 71% 0in /  0.0mm 26 W/m2
12:21 41.2 °F /  5.1 °C 32.5 °F /  0.3 °C 30.4in /  1028.8hPa East 2mph /  3.2km/h 3mph /  4.8km/h 71% 0in /  0.0mm 33 W/m2
12:26 41.2 °F /  5.1 °C 32.2 °F /  0.1 °C 30.4in /  1028.8hPa ENE 0.9mph /  1.4km/h 6mph /  9.7km/h 70% 0in /  0.0mm 25 W/m2
12:31 41.4 °F /  5.2 °C 32.4 °F /  0.2 °C 30.4in /  1028.8hPa NE 4.9mph /  7.9km/h 6mph /  9.7km/h 70% 0in /  0.0mm 26 W/m2
12:36 41.5 °F /  5.3 °C 32.2 °F /  0.1 °C 30.4in /  1028.8hPa Calm   7mph /  11.3km/h 69% 0in /  0.0mm 26 W/m2
12:41 41.7 °F /  5.4 °C 32.4 °F /  0.2 °C 30.4in /  1028.5hPa SE 2mph /  3.2km/h 3mph /  4.8km/h 69% 0in /  0.0mm 30 W/m2
12:46 41.9 °F /  5.5 °C 32.5 °F /  0.3 °C 30.4in /  1028.5hPa NE 2mph /  3.2km/h 5mph /  8km/h 69% 0in /  0.0mm 30 W/m2
12:51 42.1 °F /  5.6 °C 32.7 °F /  0.4 °C 30.4in /  1028.5hPa Calm   3mph /  4.8km/h 69% 0in /  0.0mm 32 W/m2
12:56 42.3 °F /  5.7 °C 32.5 °F /  0.3 °C 30.4in /  1028.5hPa ESE 2.9mph /  4.7km/h 6mph /  9.7km/h 68% 0in /  0.0mm 26 W/m2
13:01 42.4 °F /  5.8 °C 32.7 °F /  0.4 °C 30.4in /  1028.5hPa ENE 4mph /  6.4km/h 4mph /  6.4km/h 68% 0in /  0.0mm 26 W/m2
13:06 42.4 °F /  5.8 °C 33.1 °F /  0.6 °C 30.4in /  1028.5hPa ENE 2mph /  3.2km/h 9mph /  14.5km/h 69% 0in /  0.0mm 25 W/m2
13:11 42.6 °F /  5.9 °C 33.1 °F /  0.6 °C 30.4in /  1028.5hPa NE 4mph /  6.4km/h 6mph /  9.7km/h 69% 0in /  0.0mm 35 W/m2
13:16 42.8 °F /  6 °C 33.3 °F /  0.7 °C 30.4in /  1028.5hPa East 6.9mph /  11.1km/h 9mph /  14.5km/h 69% 0in /  0.0mm 26 W/m2
13:21 43 °F /  6.1 °C 33.1 °F /  0.6 °C 30.4in /  1028.5hPa ENE 4.9mph /  7.9km/h 12mph /  19.3km/h 68% 0in /  0.0mm 25 W/m2
13:26 43.2 °F /  6.2 °C 33.3 °F /  0.7 °C 30.4in /  1028.1hPa ENE 4.9mph /  7.9km/h 8mph /  12.9km/h 68% 0in /  0.0mm 25 W/m2
13:31 43.3 °F /  6.3 °C 33.4 °F /  0.8 °C 30.4in /  1028.1hPa ENE 2mph /  3.2km/h 12mph /  19.3km/h 68% 0in /  0.0mm 25 W/m2
13:36 43.5 °F /  6.4 °C 33.6 °F /  0.9 °C 30.4in /  1028.5hPa SE 0.9mph /  1.4km/h 4mph /  6.4km/h 68% 0in /  0.0mm 51 W/m2
13:41 43.5 °F /  6.4 °C 33.6 °F /  0.9 °C 30.4in /  1028.1hPa East 4mph /  6.4km/h 6mph /  9.7km/h 68% 0in /  0.0mm 26 W/m2
13:46 43.5 °F /  6.4 °C 33.3 °F /  0.7 °C 30.4in /  1028.1hPa ENE 4.9mph /  7.9km/h 6mph /  9.7km/h 67% 0in /  0.0mm 26 W/m2
13:51 43.5 °F /  6.4 °C 33.3 °F /  0.7 °C 30.4in /  1028.1hPa ENE 0.9mph /  1.4km/h 2mph /  3.2km/h 67% 0in /  0.0mm 72 W/m2
13:56 43.5 °F /  6.4 °C 33.6 °F /  0.9 °C 30.4in /  1028.1hPa ENE 2.9mph /  4.7km/h 6mph /  9.7km/h 68% 0in /  0.0mm 33 W/m2
14:01 43.5 °F /  6.4 °C 33.3 °F /  0.7 °C 30.4in /  1028.1hPa ESE 4mph /  6.4km/h 6mph /  9.7km/h 67% 0in /  0.0mm 25 W/m2
14:06 43.9 °F /  6.6 °C 34 °F /  1.1 °C 30.4in /  1028.1hPa NNE 2mph /  3.2km/h 6mph /  9.7km/h 68% 0in /  0.0mm 25 W/m2
14:11 43.9 °F /  6.6 °C 33.6 °F /  0.9 °C 30.4in /  1028.1hPa NE 2mph /  3.2km/h 5mph /  8km/h 67% 0in /  0.0mm 25 W/m2
14:16 43.9 °F /  6.6 °C 34 °F /  1.1 °C 30.4in /  1028.1hPa ENE 0.9mph /  1.4km/h 9mph /  14.5km/h 68% 0in /  0.0mm 25 W/m2
14:21 43.9 °F /  6.6 °C 34.3 °F /  1.3 °C 30.4in /  1027.8hPa East 0.9mph /  1.4km/h 3mph /  4.8km/h 69% 0in /  0.0mm 23 W/m2
14:26 43.9 °F /  6.6 °C 34.3 °F /  1.3 °C 30.4in /  1027.8hPa North 2mph /  3.2km/h 9mph /  14.5km/h 69% 0in /  0.0mm 23 W/m2
14:31 44.1 °F /  6.7 °C 34.5 °F /  1.4 °C 30.4in /  1027.8hPa Calm   1mph /  1.6km/h 69% 0in /  0.0mm 23 W/m2
14:36 44.1 °F /  6.7 °C 34.5 °F /  1.4 °C 30.4in /  1027.8hPa ENE 2.9mph /  4.7km/h 3mph /  4.8km/h 69% 0in /  0.0mm 21 W/m2
14:41 44.1 °F /  6.7 °C 34.5 °F /  1.4 °C 30.4in /  1027.8hPa ESE 0.9mph /  1.4km/h 5mph /  8km/h 69% 0in /  0.0mm 21 W/m2
14:46 44.1 °F /  6.7 °C 34.5 °F /  1.4 °C 30.4in /  1027.8hPa Calm   3mph /  4.8km/h 69% 0in /  0.0mm 21 W/m2
14:51 44.1 °F /  6.7 °C 34.9 °F /  1.6 °C 30.4in /  1027.8hPa NE 2mph /  3.2km/h 2mph /  3.2km/h 70% 0in /  0.0mm 21 W/m2
14:56 44.1 °F /  6.7 °C 34.9 °F /  1.6 °C 30.4in /  1027.8hPa SSE 0.9mph /  1.4km/h 3mph /  4.8km/h 70% 0in /  0.0mm 21 W/m2
15:01 44.1 °F /  6.7 °C 34.9 °F /  1.6 °C 30.4in /  1027.8hPa Calm   3mph /  4.8km/h 70% 0in /  0.0mm 19 W/m2
15:06 44.1 °F /  6.7 °C 34.9 °F /  1.6 °C 30.3in /  1027.4hPa ENE 2mph /  3.2km/h 4mph /  6.4km/h 70% 0in /  0.0mm 19 W/m2
15:11 44.2 °F /  6.8 °C 35.1 °F /  1.7 °C 30.4in /  1027.8hPa NNE 0.9mph /  1.4km/h 4mph /  6.4km/h 70% 0in /  0.0mm 19 W/m2
15:16 44.2 °F /  6.8 °C 35.1 °F /  1.7 °C 30.4in /  1027.8hPa Calm   1mph /  1.6km/h 70% 0in /  0.0mm 19 W/m2
15:21 44.2 °F /  6.8 °C 35.1 °F /  1.7 °C 30.3in /  1027.4hPa NNW 0.9mph /  1.4km/h 2mph /  3.2km/h 70% 0in /  0.0mm 19 W/m2
15:26 44.1 °F /  6.7 °C 34.9 °F /  1.6 °C 30.3in /  1027.4hPa Calm   2mph /  3.2km/h 70% 0in /  0.0mm 18 W/m2
15:31 44.1 °F /  6.7 °C 34.9 °F /  1.6 °C 30.3in /  1027.4hPa NE 0.9mph /  1.4km/h 1mph /  1.6km/h 70% 0in /  0.0mm 18 W/m2
15:36 44.1 °F /  6.7 °C 35.2 °F /  1.8 °C 30.3in /  1027.4hPa East 0.9mph /  1.4km/h 4mph /  6.4km/h 71% 0in /  0.0mm 18 W/m2
15:41 44.1 °F /  6.7 °C 35.2 °F /  1.8 °C 30.3in /  1027.4hPa NE 0.9mph /  1.4km/h 4mph /  6.4km/h 71% 0in /  0.0mm 18 W/m2
15:46 44.2 °F /  6.8 °C 35.4 °F /  1.9 °C 30.3in /  1027.4hPa SSE 0.9mph /  1.4km/h 4mph /  6.4km/h 71% 0in /  0.0mm 16 W/m2
15:51 44.2 °F /  6.8 °C 35.8 °F /  2.1 °C 30.3in /  1027.4hPa ENE 0.9mph /  1.4km/h 6mph /  9.7km/h 72% 0in /  0.0mm 16 W/m2
15:56 44.2 °F /  6.8 °C 35.8 °F /  2.1 °C 30.3in /  1027.4hPa ENE 0.9mph /  1.4km/h 3mph /  4.8km/h 72% 0in /  0.0mm 16 W/m2
16:01 44.2 °F /  6.8 °C 36.1 °F /  2.3 °C 30.3in /  1027.4hPa ENE 2.9mph /  4.7km/h 4mph /  6.4km/h 73% 0in /  0.0mm 19 W/m2
16:06 44.2 °F /  6.8 °C 36.1 °F /  2.3 °C 30.3in /  1027.4hPa ESE 0.9mph /  1.4km/h 2mph /  3.2km/h 73% 0in /  0.0mm 25 W/m2
16:11 44.2 °F /  6.8 °C 36.5 °F /  2.5 °C 30.4in /  1027.8hPa East 0.9mph /  1.4km/h 6mph /  9.7km/h 74% 0in /  0.0mm 26 W/m2
16:16 44.2 °F /  6.8 °C 36.5 °F /  2.5 °C 30.3in /  1027.4hPa East 2mph /  3.2km/h 7mph /  11.3km/h 74% 0in /  0.0mm 23 W/m2
16:21 44.4 °F /  6.9 °C 36.7 °F /  2.6 °C 30.3in /  1027.4hPa East 4mph /  6.4km/h 4mph /  6.4km/h 74% 0in /  0.0mm 18 W/m2
16:26 44.2 °F /  6.8 °C 36.5 °F /  2.5 °C 30.3in /  1027.4hPa Calm   7mph /  11.3km/h 74% 0in /  0.0mm 11 W/m2
16:31 44.1 °F /  6.7 °C 36.7 °F /  2.6 °C 30.3in /  1027.4hPa ENE 2mph /  3.2km/h 4mph /  6.4km/h 75% 0in /  0.0mm 9 W/m2
16:36 44.1 °F /  6.7 °C 36.7 °F /  2.6 °C 30.3in /  1027.4hPa SE 0.9mph /  1.4km/h 3mph /  4.8km/h 75% 0in /  0.0mm 7 W/m2
16:41 43.7 °F /  6.5 °C 36.7 °F /  2.6 °C 30.3in /  1027.4hPa ESE 0.9mph /  1.4km/h 3mph /  4.8km/h 76% 0in /  0.0mm 5 W/m2
16:51 43.3 °F /  6.3 °C 36.7 °F /  2.6 °C 30.3in /  1027.4hPa ENE 2mph /  3.2km/h 2mph /  3.2km/h 77% 0in /  0.0mm 0 W/m2
16:56 43.2 °F /  6.2 °C 36.5 °F /  2.5 °C 30.3in /  1027.4hPa Calm   2mph /  3.2km/h 77% 0in /  0.0mm 0 W/m2
17:01 43 °F /  6.1 °C 36.7 °F /  2.6 °C 30.3in /  1027.4hPa Calm   2mph /  3.2km/h 78% 0in /  0.0mm 0 W/m2
17:06 42.6 °F /  5.9 °C 36.3 °F /  2.4 °C 30.3in /  1027.4hPa Calm   1mph /  1.6km/h 78% 0in /  0.0mm 0 W/m2
17:11 42.4 °F /  5.8 °C 36.3 °F /  2.4 °C 30.3in /  1027.4hPa Calm     79% 0in /  0.0mm 0 W/m2
17:21 42.1 °F /  5.6 °C 36.3 °F /  2.4 °C 30.3in /  1027.4hPa Calm   1mph /  1.6km/h 80% 0in /  0.0mm 0 W/m2
17:26 42.1 °F /  5.6 °C 36.7 °F /  2.6 °C 30.3in /  1027.4hPa Calm     81% 0in /  0.0mm 0 W/m2
17:31 41.9 °F /  5.5 °C 36.9 °F /  2.7 °C 30.3in /  1027.4hPa Calm     82% 0in /  0.0mm 0 W/m2
17:36 41.7 °F /  5.4 °C 36.9 °F /  2.7 °C 30.3in /  1027.4hPa SSE 2mph /  3.2km/h 4mph /  6.4km/h 83% 0in /  0.0mm 0 W/m2
17:42 41.9 °F /  5.5 °C 37.4 °F /  3 °C 30.3in /  1027.4hPa ENE 0.9mph /  1.4km/h 4mph /  6.4km/h 84% 0in /  0.0mm 0 W/m2
17:47 42.1 °F /  5.6 °C 37.6 °F /  3.1 °C 30.3in /  1027.4hPa Calm   3mph /  4.8km/h 84% 0in /  0.0mm 0 W/m2
17:52 42.1 °F /  5.6 °C 37.6 °F /  3.1 °C 30.3in /  1027.4hPa NE 0.9mph /  1.4km/h 2mph /  3.2km/h 84% 0in /  0.0mm 0 W/m2
17:57 42.1 °F /  5.6 °C 37.6 °F /  3.1 °C 30.3in /  1027.4hPa West 0.9mph /  1.4km/h 3mph /  4.8km/h 84% 0in /  0.0mm 0 W/m2
18:02 42.1 °F /  5.6 °C 37.6 °F /  3.1 °C 30.3in /  1027.4hPa ENE 0.9mph /  1.4km/h 3mph /  4.8km/h 84% 0in /  0.0mm 0 W/m2
18:07 42.1 °F /  5.6 °C 37.6 °F /  3.1 °C 30.3in /  1027.4hPa Calm     84% 0in /  0.0mm 0 W/m2
18:12 41.9 °F /  5.5 °C 37.4 °F /  3 °C 30.3in /  1027.4hPa West 0.9mph /  1.4km/h 2mph /  3.2km/h 84% 0in /  0.0mm 0 W/m2
18:17 41.5 °F /  5.3 °C 37 °F /  2.8 °C 30.3in /  1027.4hPa WNW 0.9mph /  1.4km/h 2mph /  3.2km/h 84% 0in /  0.0mm 0 W/m2
18:22 41.5 °F /  5.3 °C 37.4 °F /  3 °C 30.3in /  1027.4hPa ENE 0.9mph /  1.4km/h 3mph /  4.8km/h 85% 0in /  0.0mm 0 W/m2
18:27 41.5 °F /  5.3 °C 37.6 °F /  3.1 °C 30.4in /  1027.8hPa Calm   3mph /  4.8km/h 86% 0in /  0.0mm 0 W/m2
18:32 41.5 °F /  5.3 °C 37.6 °F /  3.1 °C 30.4in /  1027.8hPa Calm   2mph /  3.2km/h 86% 0in /  0.0mm 0 W/m2
18:37 41.4 °F /  5.2 °C 37.6 °F /  3.1 °C 30.4in /  1027.8hPa East 0.9mph /  1.4km/h 3mph /  4.8km/h 86% 0in /  0.0mm 0 W/m2
18:42 41.4 °F /  5.2 °C 37.6 °F /  3.1 °C 30.4in /  1027.8hPa ENE 0.9mph /  1.4km/h 1mph /  1.6km/h 86% 0in /  0.0mm 0 W/m2
18:47 41.5 °F /  5.3 °C 37.6 °F /  3.1 °C 30.4in /  1027.8hPa Calm   2mph /  3.2km/h 86% 0in /  0.0mm 0 W/m2
18:52 41.5 °F /  5.3 °C 37.6 °F /  3.1 °C 30.4in /  1027.8hPa Calm   2mph /  3.2km/h 86% 0in /  0.0mm 0 W/m2
18:57 41.5 °F /  5.3 °C 37.6 °F /  3.1 °C 30.4in /  1027.8hPa Calm   3mph /  4.8km/h 86% 0in /  0.0mm 0 W/m2
19:02 41.5 °F /  5.3 °C 37.6 °F /  3.1 °C 30.4in /  1027.8hPa Calm   1mph /  1.6km/h 86% 0in /  0.0mm 0 W/m2
19:07 41.5 °F /  5.3 °C 37.6 °F /  3.1 °C 30.4in /  1027.8hPa Calm   4mph /  6.4km/h 86% 0in /  0.0mm 0 W/m2
19:12 41.4 °F /  5.2 °C 37.6 °F /  3.1 °C 30.4in /  1027.8hPa Calm     86% 0in /  0.0mm 0 W/m2
19:17 41.4 °F /  5.2 °C 37.6 °F /  3.1 °C 30.4in /  1027.8hPa Calm     86% 0in /  0.0mm 0 W/m2
19:27 41.2 °F /  5.1 °C 37.6 °F /  3.1 °C 30.4in /  1027.8hPa Calm   1mph /  1.6km/h 87% 0in /  0.0mm 0 W/m2
19:32 41.2 °F /  5.1 °C 37.6 °F /  3.1 °C 30.4in /  1027.8hPa Calm     87% 0in /  0.0mm 0 W/m2
19:42 41.4 °F /  5.2 °C 37.8 °F /  3.2 °C 30.4in /  1027.8hPa Calm     87% 0in /  0.0mm 0 W/m2
19:47 41.4 °F /  5.2 °C 37.8 °F /  3.2 °C 30.4in /  1027.8hPa Calm     87% 0in /  0.0mm 0 W/m2
19:52 41.4 °F /  5.2 °C 37.8 °F /  3.2 °C 30.4in /  1027.8hPa East 0.9mph /  1.4km/h 2mph /  3.2km/h 87% 0in /  0.0mm 0 W/m2
19:57 41.4 °F /  5.2 °C 37.8 °F /  3.2 °C 30.4in /  1027.8hPa Calm     87% 0in /  0.0mm 0 W/m2
20:02 41.4 °F /  5.2 °C 37.8 °F /  3.2 °C 30.4in /  1027.8hPa Calm   3mph /  4.8km/h 87% 0in /  0.0mm 0 W/m2
20:07 41.5 °F /  5.3 °C 37.9 °F /  3.3 °C 30.4in /  1027.8hPa Calm   1mph /  1.6km/h 87% 0in /  0.0mm 0 W/m2
20:12 41.5 °F /  5.3 °C 37.9 °F /  3.3 °C 30.4in /  1027.8hPa Calm   3mph /  4.8km/h 87% 0in /  0.0mm 0 W/m2
20:17 41.5 °F /  5.3 °C 37.9 °F /  3.3 °C 30.4in /  1027.8hPa Calm     87% 0in /  0.0mm 0 W/m2
20:22 41.5 °F /  5.3 °C 37.9 °F /  3.3 °C 30.4in /  1027.8hPa Calm     87% 0in /  0.0mm 0 W/m2
20:27 41.7 °F /  5.4 °C 38.1 °F /  3.4 °C 30.4in /  1027.8hPa Calm     87% 0in /  0.0mm 0 W/m2
20:33 41.7 °F /  5.4 °C 38.5 °F /  3.6 °C 30.4in /  1027.8hPa Calm     88% 0in /  0.0mm 0 W/m2
20:38 41.7 °F /  5.4 °C 38.5 °F /  3.6 °C 30.3in /  1027.4hPa Calm     88% 0in /  0.0mm 0 W/m2
20:43 41.9 °F /  5.5 °C 38.7 °F /  3.7 °C 30.3in /  1027.4hPa Calm     88% 0in /  0.0mm 0 W/m2
20:48 42.1 °F /  5.6 °C 38.8 °F /  3.8 °C 30.3in /  1027.4hPa Calm     88% 0in /  0.0mm 0 W/m2
20:53 42.1 °F /  5.6 °C 38.8 °F /  3.8 °C 30.3in /  1027.4hPa NE 2mph /  3.2km/h 2mph /  3.2km/h 88% 0in /  0.0mm 0 W/m2
20:58 42.3 °F /  5.7 °C 39 °F /  3.9 °C 30.3in /  1027.4hPa ESE 2.9mph /  4.7km/h 3mph /  4.8km/h 88% 0in /  0.0mm 0 W/m2
21:03 42.3 °F /  5.7 °C 39 °F /  3.9 °C 30.3in /  1027.4hPa Calm   3mph /  4.8km/h 88% 0in /  0.0mm 0 W/m2
21:08 42.3 °F /  5.7 °C 39 °F /  3.9 °C 30.3in /  1027.4hPa NE 2mph /  3.2km/h 2mph /  3.2km/h 88% 0in /  0.0mm 0 W/m2
21:13 42.3 °F /  5.7 °C 39 °F /  3.9 °C 30.3in /  1027.4hPa Calm   2mph /  3.2km/h 88% 0in /  0.0mm 0 W/m2
21:18 42.3 °F /  5.7 °C 39 °F /  3.9 °C 30.3in /  1027.4hPa Calm   1mph /  1.6km/h 88% 0in /  0.0mm 0 W/m2
21:23 42.3 °F /  5.7 °C 39 °F /  3.9 °C 30.3in /  1027.4hPa Calm     88% 0in /  0.0mm 0 W/m2
21:28 42.3 °F /  5.7 °C 39 °F /  3.9 °C 30.3in /  1027.4hPa Calm   3mph /  4.8km/h 88% 0in /  0.0mm 0 W/m2
21:33 42.3 °F /  5.7 °C 39 °F /  3.9 °C 30.3in /  1027.4hPa ESE 0.9mph /  1.4km/h 3mph /  4.8km/h 88% 0in /  0.0mm 0 W/m2
21:43 42.3 °F /  5.7 °C 39 °F /  3.9 °C 30.3in /  1027.4hPa Calm   2mph /  3.2km/h 88% 0in /  0.0mm 0 W/m2
21:48 42.3 °F /  5.7 °C 39 °F /  3.9 °C 30.3in /  1027.4hPa Calm   3mph /  4.8km/h 88% 0in /  0.0mm 0 W/m2
21:53 42.3 °F /  5.7 °C 39 °F /  3.9 °C 30.3in /  1027.4hPa Calm   2mph /  3.2km/h 88% 0in /  0.0mm 0 W/m2
21:58 42.3 °F /  5.7 °C 39 °F /  3.9 °C 30.3in /  1027.4hPa Calm   2mph /  3.2km/h 88% 0in /  0.0mm 0 W/m2
22:03 42.3 °F /  5.7 °C 39 °F /  3.9 °C 30.3in /  1027.4hPa Calm   3mph /  4.8km/h 88% 0in /  0.0mm 0 W/m2
22:08 42.3 °F /  5.7 °C 39 °F /  3.9 °C 30.3in /  1027.1hPa ENE 0.9mph /  1.4km/h 5mph /  8km/h 88% 0in /  0.0mm 0 W/m2
22:13 42.3 °F /  5.7 °C 39 °F /  3.9 °C 30.3in /  1027.4hPa Calm   3mph /  4.8km/h 88% 0in /  0.0mm 0 W/m2
22:18 42.3 °F /  5.7 °C 39 °F /  3.9 °C 30.3in /  1027.1hPa Calm   5mph /  8km/h 88% 0in /  0.0mm 0 W/m2
22:23 42.3 °F /  5.7 °C 39 °F /  3.9 °C 30.3in /  1027.1hPa Calm   2mph /  3.2km/h 88% 0in /  0.0mm 0 W/m2
22:28 42.3 °F /  5.7 °C 39 °F /  3.9 °C 30.3in /  1027.1hPa Calm   1mph /  1.6km/h 88% 0in /  0.0mm 0 W/m2
22:33 42.1 °F /  5.6 °C 38.8 °F /  3.8 °C 30.3in /  1027.1hPa Calm   2mph /  3.2km/h 88% 0in /  0.0mm 0 W/m2
22:38 41.9 °F /  5.5 °C 38.7 °F /  3.7 °C 30.3in /  1027.1hPa Calm   2mph /  3.2km/h 88% 0in /  0.0mm 0 W/m2
22:43 41.7 °F /  5.4 °C 38.5 °F /  3.6 °C 30.3in /  1027.1hPa Calm   1mph /  1.6km/h 88% 0in /  0.0mm 0 W/m2
22:48 41.7 °F /  5.4 °C 38.7 °F /  3.7 °C 30.3in /  1027.1hPa East 2.9mph /  4.7km/h 4mph /  6.4km/h 89% 0in /  0.0mm 0 W/m2
22:53 41.5 °F /  5.3 °C 38.5 °F /  3.6 °C 30.3in /  1027.1hPa ESE 2mph /  3.2km/h 2mph /  3.2km/h 89% 0in /  0.0mm 0 W/m2
22:58 41.5 °F /  5.3 °C 38.5 °F /  3.6 °C 30.3in /  1027.1hPa Calm   1mph /  1.6km/h 89% 0in /  0.0mm 0 W/m2
23:03 41.4 °F /  5.2 °C 38.3 °F /  3.5 °C 30.3in /  1027.1hPa ENE 2mph /  3.2km/h 4mph /  6.4km/h 89% 0in /  0.0mm 0 W/m2
23:08 41.2 °F /  5.1 °C 38.1 °F /  3.4 °C 30.3in /  1027.1hPa NNE 0.9mph /  1.4km/h 1mph /  1.6km/h 89% 0in /  0.0mm 0 W/m2
23:13 41 °F /  5 °C 37.9 °F /  3.3 °C 30.3in /  1026.8hPa Calm   1mph /  1.6km/h 89% 0in /  0.0mm 0 W/m2
23:18 40.6 °F /  4.8 °C 37.9 °F /  3.3 °C 30.3in /  1026.8hPa Calm     90% 0in /  0.0mm 0 W/m2
23:23 40.5 °F /  4.7 °C 37.8 °F /  3.2 °C 30.3in /  1026.8hPa Calm   2mph /  3.2km/h 90% 0in /  0.0mm 0 W/m2
23:28 40.3 °F /  4.6 °C 37.6 °F /  3.1 °C 30.3in /  1026.8hPa Calm   5mph /  8km/h 90% 0in /  0.0mm 0 W/m2
23:33 40.1 °F /  4.5 °C 37.4 °F /  3 °C 30.3in /  1026.8hPa SE 2.9mph /  4.7km/h 3mph /  4.8km/h 90% 0in /  0.0mm 0 W/m2
23:38 39.9 °F /  4.4 °C 37.6 °F /  3.1 °C 30.3in /  1026.8hPa East 0.9mph /  1.4km/h 3mph /  4.8km/h 91% 0in /  0.0mm 0 W/m2
23:43 39.7 °F /  4.3 °C 37.4 °F /  3 °C 30.3in /  1026.8hPa Calm   1mph /  1.6km/h 91% 0in /  0.0mm 0 W/m2
23:48 39.7 °F /  4.3 °C 37.4 °F /  3 °C 30.3in /  1026.8hPa ENE 2.9mph /  4.7km/h 3mph /  4.8km/h 91% 0in /  0.0mm 0 W/m2
23:53 39.6 °F /  4.2 °C 37.2 °F /  2.9 °C 30.3in /  1026.8hPa East 0.9mph /  1.4km/h 2mph /  3.2km/h 91% 0in /  0.0mm 0 W/m2
23:58 39.6 °F /  4.2 °C 37.2 °F /  2.9 °C 30.3in /  1026.8hPa Calm   2mph /  3.2km/h 91% 0in /  0.0mm 0 W/m2
Juneau County Weather
Compliments of Weather Underground - 2 mb